createdAt,value
2018-04-07T00:00:29.619Z,18.05
2018-04-07T00:02:57.114Z,13.35
2018-04-07T00:05:25.392Z,12.90
2018-04-07T00:07:53.651Z,12.63
2018-04-07T00:10:21.915Z,11.27
2018-04-07T00:12:49.410Z,15.75
2018-04-07T00:15:16.915Z,15.43
2018-04-07T00:17:44.417Z,15.25
2018-04-07T00:20:12.676Z,15.43
2018-04-07T00:22:40.170Z,13.48
2018-04-07T00:25:07.678Z,12.73
2018-04-07T00:27:36.694Z,16.67
2018-04-07T00:30:04.956Z,15.32
2018-04-07T00:32:33.959Z,18.83
2018-04-07T00:35:01.528Z,16.10
2018-04-07T00:37:29.795Z,16.08
2018-04-07T00:39:57.296Z,19.27
2018-04-07T00:42:24.811Z,18.30
2018-04-07T00:44:52.323Z,17.08
2018-04-07T00:47:19.835Z,16.15
2018-04-07T00:49:48.099Z,18.80
2018-04-07T00:52:15.614Z,19.73
2018-04-07T00:54:43.117Z,16.20
2018-04-07T00:57:10.607Z,16.92
2018-04-07T00:59:38.109Z,13.88
2018-04-07T01:02:05.624Z,14.93
2018-04-07T01:04:33.891Z,11.65
2018-04-07T01:07:02.151Z,14.75
2018-04-07T01:09:30.422Z,15.50
2018-04-07T01:11:57.931Z,10.93
2018-04-07T01:14:25.443Z,12.23
2018-04-07T01:16:52.947Z,10.88
2018-04-07T01:19:20.466Z,15.40
2018-04-07T01:21:48.727Z,12.80
2018-04-07T01:24:16.239Z,14.00
2018-04-07T01:26:43.731Z,12.52
2018-04-07T01:29:11.239Z,14.57
2018-04-07T01:31:38.742Z,11.95
2018-04-07T01:34:06.251Z,17.10
2018-04-07T01:36:33.756Z,14.93
2018-04-07T01:39:01.253Z,14.60
2018-04-07T01:41:29.512Z,13.13
2018-04-07T01:43:57.019Z,14.80
2018-04-07T01:46:24.519Z,15.25
2018-04-07T01:48:52.042Z,14.75
2018-04-07T01:51:19.547Z,15.55
2018-04-07T01:53:47.042Z,15.90
2018-04-07T01:56:14.616Z,14.18
2018-04-07T01:58:42.126Z,12.82
2018-04-07T02:01:09.639Z,11.25
2018-04-07T02:03:37.146Z,12.60
2018-04-07T02:06:04.641Z,14.00
2018-04-07T02:08:32.142Z,14.73
2018-04-07T02:10:59.639Z,14.20
2018-04-07T02:13:27.911Z,14.15
2018-04-07T02:15:56.166Z,12.25
2018-04-07T02:18:23.684Z,14.57
2018-04-07T02:20:51.199Z,14.68
2018-04-07T02:23:19.471Z,14.98
2018-04-07T02:25:47.735Z,16.67
2018-04-07T02:28:15.227Z,14.05
2018-04-07T02:30:43.502Z,17.27
2018-04-07T02:33:11.771Z,14.60
2018-04-07T02:35:40.047Z,15.52
2018-04-07T02:38:08.312Z,14.25
2018-04-07T02:40:36.582Z,18.83
2018-04-07T02:43:04.091Z,13.10
2018-04-07T02:45:31.624Z,11.25
2018-04-07T02:47:59.161Z,11.93
2018-04-07T02:50:26.680Z,14.85
2018-04-07T02:52:54.175Z,12.13
2018-04-07T02:55:22.466Z,12.18
2018-04-07T02:57:50.752Z,15.85
2018-04-07T03:00:19.007Z,12.70
2018-04-07T03:02:47.276Z,12.85
2018-04-07T03:05:14.783Z,12.98
2018-04-07T03:07:42.299Z,13.02
2018-04-07T03:10:09.800Z,12.82
2018-04-07T03:12:37.307Z,13.68
2018-04-07T03:15:04.802Z,12.15
2018-04-07T03:17:32.303Z,13.48
2018-04-07T03:19:59.799Z,15.27
2018-04-07T03:22:28.077Z,12.93
2018-04-07T03:24:56.331Z,11.57
2018-04-07T03:27:23.835Z,12.50
2018-04-07T03:29:51.327Z,13.18
2018-04-07T03:32:18.826Z,14.50
2018-04-07T03:34:47.104Z,12.48
2018-04-07T03:37:15.375Z,15.50
2018-04-07T03:39:43.976Z,13.15
2018-04-07T03:42:12.248Z,10.68
2018-04-07T03:44:40.511Z,14.87
2018-04-07T03:47:08.786Z,13.32
2018-04-07T03:49:37.075Z,11.30
2018-04-07T03:52:05.350Z,11.82
2018-04-07T03:54:33.616Z,12.05
2018-04-07T03:57:01.892Z,14.77
2018-04-07T03:59:30.156Z,13.40
2018-04-07T04:01:57.669Z,13.00
2018-04-07T04:04:25.202Z,11.65
2018-04-07T04:06:53.490Z,15.75
2018-04-07T04:09:21.001Z,15.95
2018-04-07T04:11:48.492Z,13.55
2018-04-07T04:14:16.751Z,16.23
2018-04-07T04:16:44.247Z,14.48
2018-04-07T04:19:11.743Z,19.02
2018-04-07T04:21:39.242Z,16.45
2018-04-07T04:24:07.545Z,17.08
2018-04-07T04:26:35.051Z,15.65
2018-04-07T04:29:02.576Z,20.00
2018-04-07T04:31:30.089Z,19.58
2018-04-07T04:33:58.343Z,14.30
2018-04-07T04:36:25.875Z,15.38
2018-04-07T04:38:53.355Z,14.18
2018-04-07T04:41:20.852Z,12.02
2018-04-07T04:43:49.123Z,14.30
2018-04-07T04:46:17.383Z,15.43
2018-04-07T04:48:45.655Z,15.50
2018-04-07T04:51:13.150Z,16.52
2018-04-07T04:53:40.655Z,15.20
2018-04-07T04:56:08.150Z,13.30
2018-04-07T04:58:36.411Z,14.82
2018-04-07T05:01:03.923Z,14.60
2018-04-07T05:03:31.414Z,15.77
2018-04-07T05:05:58.911Z,13.82
2018-04-07T05:08:26.422Z,14.55
2018-04-07T05:10:53.944Z,15.32
2018-04-07T05:13:21.452Z,17.45
2018-04-07T05:15:48.939Z,16.67
2018-04-07T05:18:16.451Z,15.55
2018-04-07T05:20:43.959Z,13.98
2018-04-07T05:23:11.455Z,17.33
2018-04-07T05:25:38.968Z,15.25
2018-04-07T05:28:07.238Z,14.02
2018-04-07T05:30:35.515Z,13.18
2018-04-07T05:33:03.782Z,17.12
2018-04-07T05:39:02.975Z,16.20
2018-04-07T05:41:30.478Z,18.48
2018-04-07T05:43:58.763Z,17.05
2018-04-07T05:46:26.271Z,21.50
2018-04-07T05:48:53.772Z,19.70
2018-04-07T05:51:22.030Z,18.77
2018-04-07T05:53:49.525Z,21.12
2018-04-07T05:56:17.068Z,14.30
2018-04-07T05:58:45.329Z,22.37
2018-04-07T06:01:13.599Z,18.45
2018-04-07T06:03:41.863Z,15.75
2018-04-07T06:06:10.860Z,14.57
2018-04-07T06:08:38.379Z,18.17
2018-04-07T06:11:05.876Z,17.30
2018-04-07T06:13:34.147Z,16.20
2018-04-07T06:16:01.664Z,25.35
2018-04-07T06:18:30.047Z,16.17
2018-04-07T06:20:57.593Z,18.17
2018-04-07T06:23:25.836Z,18.35
2018-04-07T06:25:54.100Z,20.33
2018-04-07T06:28:21.610Z,18.58
2018-04-07T06:30:49.113Z,19.77
2018-04-07T06:33:16.607Z,26.05
2018-04-07T06:35:44.133Z,23.73
2018-04-07T06:38:11.641Z,17.50
2018-04-07T06:40:39.137Z,17.50
2018-04-07T06:43:06.662Z,22.45
2018-04-07T06:45:34.167Z,20.27
2018-04-07T06:48:01.731Z,20.23
2018-04-07T06:50:29.207Z,21.48
2018-04-07T06:52:57.468Z,15.68
2018-04-07T06:55:24.970Z,16.20
2018-04-07T06:57:52.460Z,14.93
2018-04-07T07:00:19.955Z,16.17
2018-04-07T07:02:48.239Z,14.95
2018-04-07T07:05:16.498Z,16.12
2018-04-07T07:07:44.007Z,13.55
2018-04-07T07:10:11.502Z,20.45
2018-04-07T07:12:39.784Z,16.10
2018-04-07T07:15:07.282Z,12.98
2018-04-07T07:17:34.783Z,16.10
2018-04-07T07:20:02.296Z,15.65
2018-04-07T07:22:29.811Z,19.77
2018-04-07T07:24:57.311Z,20.50
2018-04-07T07:27:24.811Z,12.55
2018-04-07T07:29:52.320Z,18.73
2018-04-07T07:32:20.597Z,19.05
2018-04-07T07:34:48.879Z,17.35
2018-04-07T07:37:16.970Z,16.52
2018-04-07T07:39:44.475Z,13.68
2018-04-07T07:42:12.002Z,19.25
2018-04-07T07:44:39.500Z,15.20
2018-04-07T07:47:07.019Z,14.90
2018-04-07T07:49:34.541Z,17.37
2018-04-07T07:52:02.052Z,15.35
2018-04-07T07:54:29.569Z,12.10
2018-04-07T07:56:57.071Z,16.30
2018-04-07T07:59:24.579Z,18.50
2018-04-07T08:01:52.092Z,16.30
2018-04-07T08:04:19.612Z,14.60
2018-04-07T08:06:47.171Z,12.80
2018-04-07T08:09:14.687Z,12.32
2018-04-07T08:11:42.967Z,16.73
2018-04-07T08:14:11.245Z,15.10
2018-04-07T08:16:39.548Z,14.15
2018-04-07T08:19:07.059Z,38.45
2018-04-07T08:21:34.580Z,15.85
2018-04-07T08:24:02.084Z,14.57
2018-04-07T08:26:29.602Z,14.32
2018-04-07T08:28:57.112Z,17.50
2018-04-07T08:31:25.467Z,16.23
2018-04-07T08:33:52.978Z,14.03
2018-04-07T08:36:20.491Z,13.30
2018-04-07T08:38:48.005Z,18.10
2018-04-07T08:41:15.523Z,34.50
2018-04-07T08:43:43.031Z,31.07
2018-04-07T08:46:10.545Z,33.43
2018-04-07T08:48:38.819Z,17.13
2018-04-07T08:51:07.154Z,17.43
2018-04-07T08:53:35.399Z,31.77
2018-04-07T08:56:02.909Z,32.33
2018-04-07T08:58:30.432Z,34.27
2018-04-07T09:00:57.942Z,18.13
2018-04-07T09:03:26.223Z,32.93
2018-04-07T09:05:54.499Z,37.00
2018-04-07T09:08:22.794Z,34.60
2018-04-07T09:10:51.059Z,32.23
2018-04-07T09:13:19.344Z,18.40
2018-04-07T09:15:47.648Z,15.07
2018-04-07T09:18:15.165Z,14.43
2018-04-07T09:20:42.674Z,19.10
2018-04-07T09:23:10.179Z,17.50
2018-04-07T09:25:37.702Z,15.07
2018-04-07T09:28:05.216Z,14.90
2018-04-07T09:30:33.498Z,15.87
2018-04-07T09:33:01.000Z,15.40
2018-04-07T09:35:28.516Z,15.67
2018-04-07T09:37:56.799Z,15.07
2018-04-07T09:40:24.304Z,15.23
2018-04-07T09:42:51.823Z,13.73
2018-04-07T09:45:19.343Z,13.17
2018-04-07T09:47:46.840Z,12.43
2018-04-07T09:50:14.343Z,13.40
2018-04-07T09:52:41.860Z,12.43
2018-04-07T09:55:09.371Z,12.43
2018-04-07T09:57:36.873Z,15.07
2018-04-07T10:00:04.388Z,11.37
2018-04-07T10:02:35.770Z,13.90
2018-04-07T10:05:03.275Z,10.83
2018-04-07T10:07:30.792Z,12.87
2018-04-07T10:09:58.316Z,12.47
2018-04-07T10:12:25.819Z,12.47
2018-04-07T10:14:53.328Z,13.30
2018-04-07T10:17:20.833Z,12.37
2018-04-07T10:19:48.336Z,12.23
2018-04-07T10:22:15.848Z,12.80
2018-04-07T10:24:43.366Z,24.43
2018-04-07T10:27:11.638Z,12.60
2018-04-07T10:29:40.663Z,12.53
2018-04-07T10:32:08.186Z,12.90
2018-04-07T10:34:35.697Z,14.00
2018-04-07T10:37:03.223Z,15.70
2018-04-07T10:39:31.519Z,12.07
2018-04-07T10:41:59.031Z,15.67
2018-04-07T10:44:26.549Z,12.30
2018-04-07T10:46:54.116Z,13.27
2018-04-07T10:49:21.623Z,15.50
2018-04-07T10:51:50.635Z,12.17
2018-04-07T10:54:18.919Z,13.80
2018-04-07T10:56:47.191Z,13.20
2018-04-07T10:59:15.459Z,12.83
2018-04-07T11:01:43.732Z,15.37
2018-04-07T11:04:12.015Z,12.20
2018-04-07T11:06:40.298Z,11.83
2018-04-07T11:09:08.602Z,12.90
2018-04-07T11:11:36.115Z,12.47
2018-04-07T11:14:04.395Z,12.50
2018-04-07T11:16:32.670Z,14.00
2018-04-07T11:19:00.280Z,13.50
2018-04-07T11:21:27.796Z,10.60
2018-04-07T11:23:56.067Z,12.53
2018-04-07T11:26:25.083Z,12.73
2018-04-07T11:28:53.362Z,15.90
2018-04-07T11:31:20.964Z,19.37
2018-04-07T11:33:49.267Z,16.90
2018-04-07T11:36:16.764Z,11.30
2018-04-07T11:38:44.283Z,10.93
2018-04-07T11:41:13.304Z,13.00
2018-04-07T11:43:41.564Z,10.93
2018-04-07T11:46:09.062Z,10.40
2018-04-07T11:48:36.573Z,23.20
2018-04-07T11:51:04.083Z,12.20
2018-04-07T11:53:31.576Z,9.80
2018-04-07T11:55:59.071Z,12.50
2018-04-07T11:58:27.334Z,15.50
2018-04-07T12:00:55.610Z,8.97
2018-04-07T12:03:23.924Z,28.10
2018-04-07T12:05:51.453Z,19.33
2018-04-07T12:08:19.718Z,16.57
2018-04-07T12:10:47.227Z,16.17
2018-04-07T12:13:14.731Z,19.43
2018-04-07T12:15:42.222Z,11.40
2018-04-07T12:18:09.719Z,9.63
2018-04-07T12:20:37.207Z,9.07
2018-04-07T12:23:04.704Z,17.33
2018-04-07T12:25:32.205Z,16.67
2018-04-07T12:27:59.703Z,14.03
2018-04-07T12:30:27.972Z,11.30
2018-04-07T12:32:56.236Z,16.07
2018-04-07T12:35:23.735Z,10.93
2018-04-07T12:37:51.231Z,10.23
2018-04-07T12:40:18.726Z,17.87
2018-04-07T12:42:46.996Z,11.83
2018-04-07T12:45:15.259Z,10.47
2018-04-07T12:47:42.755Z,20.63
2018-04-07T12:50:10.260Z,20.07
2018-04-07T12:52:37.769Z,9.60
2018-04-07T12:55:05.266Z,21.97
2018-04-07T12:57:32.768Z,10.97
2018-04-07T13:00:01.031Z,9.10
2018-04-07T13:02:28.539Z,9.43
2018-04-07T13:04:56.052Z,8.27
2018-04-07T13:07:24.336Z,9.50
2018-04-07T13:09:52.645Z,8.00
2018-04-07T13:12:20.143Z,9.57
2018-04-07T13:14:48.433Z,13.40
2018-04-07T13:17:15.950Z,11.83
2018-04-07T13:19:43.451Z,13.57
2018-04-07T13:22:10.968Z,9.20
2018-04-07T13:24:38.477Z,34.80
2018-04-07T13:27:06.739Z,10.93
2018-04-07T13:29:34.252Z,11.03
2018-04-07T13:32:01.747Z,10.07
2018-04-07T13:34:30.024Z,9.43
2018-04-07T13:36:59.032Z,8.80
2018-04-07T13:39:26.539Z,9.80
2018-04-07T13:41:54.039Z,9.20
2018-04-07T13:44:22.344Z,13.30
2018-04-07T13:46:50.610Z,13.63
2018-04-07T13:49:18.881Z,9.20
2018-04-07T13:51:46.368Z,9.33
2018-04-07T13:54:13.875Z,8.00
2018-04-07T13:56:41.370Z,9.17
2018-04-07T13:59:09.637Z,8.50
2018-04-07T14:01:37.909Z,7.40
2018-04-07T14:04:06.185Z,7.03
2018-04-07T14:06:34.461Z,6.77
2018-04-07T14:09:02.739Z,7.90
2018-04-07T14:11:31.015Z,7.80
2018-04-07T14:13:59.285Z,8.23
2018-04-07T14:16:26.815Z,7.60
2018-04-07T14:18:54.334Z,8.37
2018-04-07T14:21:21.849Z,8.40
2018-04-07T14:23:49.345Z,8.73
2018-04-07T14:26:17.600Z,7.67
2018-04-07T14:28:45.092Z,10.97
2018-04-07T14:31:12.596Z,8.97
2018-04-07T14:33:40.082Z,8.70
2018-04-07T14:36:08.395Z,8.17
2018-04-07T14:38:35.913Z,9.23
2018-04-07T14:41:04.189Z,12.00
2018-04-07T14:43:32.458Z,8.97
2018-04-07T14:45:59.961Z,9.07
2018-04-07T14:48:27.455Z,10.00
2018-04-07T14:50:54.954Z,15.93
2018-04-07T14:53:23.213Z,9.23
2018-04-07T14:55:51.490Z,8.90
2018-04-07T14:58:18.985Z,15.20
2018-04-07T15:00:46.475Z,9.10
2018-04-07T15:03:13.988Z,9.30
2018-04-07T15:05:41.499Z,8.70
2018-04-07T15:08:08.994Z,14.63
2018-04-07T15:10:37.271Z,9.90
2018-04-07T15:13:05.547Z,39.10
2018-04-07T15:15:33.809Z,9.83
2018-04-07T15:18:01.301Z,9.60
2018-04-07T15:20:28.804Z,10.37
2018-04-07T15:22:56.299Z,12.13
2018-04-07T15:25:24.562Z,26.23
2018-04-07T15:27:52.837Z,10.83
2018-04-07T15:30:21.103Z,10.83
2018-04-07T15:32:48.608Z,10.87
2018-04-07T15:35:16.118Z,10.43
2018-04-07T15:37:45.129Z,11.00
2018-04-07T15:40:13.411Z,10.90
2018-04-07T15:42:41.692Z,11.30
2018-04-07T15:45:09.951Z,11.80
2018-04-07T15:47:37.554Z,11.97
2018-04-07T15:50:05.063Z,11.80
2018-04-07T15:52:32.563Z,12.50
2018-04-07T15:55:00.080Z,13.23
2018-04-07T15:57:28.344Z,12.40
2018-04-07T15:59:55.843Z,12.97
2018-04-07T16:02:24.142Z,12.17
2018-04-07T16:04:51.639Z,12.63
2018-04-07T16:07:19.157Z,13.77
2018-04-07T16:09:46.672Z,15.03
2018-04-07T16:12:14.279Z,14.67
2018-04-07T16:14:41.799Z,14.73
2018-04-07T16:17:10.080Z,14.10
2018-04-07T16:19:38.344Z,12.90
2018-04-07T16:22:05.839Z,15.67
2018-04-07T16:24:33.352Z,15.50
2018-04-07T16:27:01.619Z,15.63
2018-04-07T16:29:29.136Z,16.03
2018-04-07T16:31:56.635Z,15.87
2018-04-07T16:34:24.131Z,18.03
2018-04-07T16:36:52.402Z,14.63
2018-04-07T16:39:20.688Z,16.23
2018-04-07T16:41:48.204Z,14.63
2018-04-07T16:44:15.715Z,16.50
2018-04-07T16:46:43.215Z,16.70
2018-04-07T16:49:10.752Z,17.57
2018-04-07T16:51:38.275Z,16.90
2018-04-07T16:54:06.538Z,17.07
2018-04-07T16:56:34.827Z,16.60
2018-04-07T16:59:03.111Z,17.37
2018-04-07T17:01:30.612Z,17.30
2018-04-07T17:03:58.111Z,18.93
2018-04-07T17:06:26.386Z,19.53
2018-04-07T17:08:54.672Z,18.33
2018-04-07T17:11:22.951Z,18.47
2018-04-07T17:13:51.220Z,18.60
2018-04-07T17:16:19.491Z,21.30
2018-04-07T17:18:47.863Z,16.83
2018-04-07T17:21:15.368Z,18.03
2018-04-07T17:23:42.903Z,16.23
2018-04-07T17:26:11.187Z,18.73
2018-04-07T17:28:38.695Z,17.97
2018-04-07T17:31:06.223Z,16.47
2018-04-07T17:33:33.755Z,17.37
2018-04-07T17:36:02.036Z,16.90
2018-04-07T17:38:29.551Z,20.10
2018-04-07T17:40:57.055Z,18.00
2018-04-07T17:43:24.561Z,17.50
2018-04-07T17:45:52.068Z,16.47
2018-04-07T17:48:19.581Z,18.60
2018-04-07T17:50:47.123Z,19.23
2018-04-07T17:53:14.644Z,17.53
2018-04-07T17:55:42.915Z,16.90
2018-04-07T17:58:11.220Z,16.47
2018-04-07T18:00:38.723Z,17.00
2018-04-07T18:03:06.233Z,18.77
2018-04-07T18:05:33.760Z,17.07
2018-04-07T18:08:02.035Z,44.80
2018-04-07T18:10:30.310Z,19.23
2018-04-07T18:12:57.823Z,18.13
2018-04-07T18:15:25.341Z,16.70
2018-04-07T18:17:53.623Z,18.53
2018-04-07T18:20:21.920Z,18.53
2018-04-07T18:22:49.420Z,17.17
2018-04-07T18:25:16.926Z,17.90
2018-04-07T18:27:44.430Z,16.80
2018-04-07T18:30:11.948Z,17.60
2018-04-07T18:32:39.823Z,21.13
2018-04-07T18:35:07.323Z,18.90
2018-04-07T18:37:34.940Z,20.33
2018-04-07T18:40:02.451Z,17.47
2018-04-07T18:42:30.739Z,17.33
2018-04-07T18:44:59.015Z,16.50
2018-04-07T18:47:27.350Z,19.23
2018-04-07T18:49:54.860Z,18.37
2018-04-07T18:52:23.134Z,18.43
2018-04-07T18:54:51.411Z,17.77
2018-04-07T18:57:19.688Z,19.67
2018-04-07T18:59:47.955Z,22.20
2018-04-07T19:02:16.243Z,18.17
2018-04-07T19:04:44.546Z,21.20
2018-04-07T19:07:12.047Z,17.27
2018-04-07T19:09:40.365Z,17.30
2018-04-07T19:12:07.851Z,17.43
2018-04-07T19:14:35.375Z,19.20
2018-04-07T19:17:03.660Z,18.00
2018-04-07T19:19:31.164Z,18.43
2018-04-07T19:21:58.708Z,18.53
2018-04-07T19:24:26.227Z,17.33
2018-04-07T19:26:54.855Z,18.03
2018-04-07T19:29:22.366Z,18.43
2018-04-07T19:31:50.641Z,20.63
2018-04-07T19:34:18.950Z,17.80
2018-04-07T19:36:46.460Z,18.00
2018-04-07T19:39:13.991Z,17.13
2018-04-07T19:41:41.499Z,19.23
2018-04-07T19:44:09.029Z,17.75
2018-04-07T19:46:36.554Z,17.60
2018-04-07T19:49:04.074Z,16.80
2018-04-07T19:51:32.339Z,17.33
2018-04-07T19:54:00.631Z,18.23
2018-04-07T19:56:28.143Z,18.45
2018-04-07T19:58:55.775Z,18.20
2018-04-07T20:01:23.282Z,19.63
2018-04-07T20:03:50.803Z,17.25
2018-04-07T20:06:18.335Z,20.60
2018-04-07T20:08:46.606Z,18.65
2018-04-07T20:11:14.139Z,18.37
2018-04-07T20:13:41.663Z,19.67
2018-04-07T20:16:09.169Z,19.70
2018-04-07T20:18:37.463Z,20.98
2018-04-07T20:21:04.971Z,18.35
2018-04-07T20:23:32.575Z,20.90
2018-04-07T20:26:00.114Z,17.58
2018-04-07T20:31:09.695Z,23.67
2018-04-07T20:33:37.204Z,19.83
2018-04-07T20:36:04.723Z,21.10
2018-04-07T20:38:32.231Z,20.65
2018-04-07T20:40:59.758Z,19.80
2018-04-07T20:43:27.259Z,19.20
2018-04-07T20:45:54.768Z,20.75
2018-04-07T20:48:22.287Z,19.70
2018-04-07T20:50:50.574Z,17.87
2018-04-07T20:53:18.847Z,19.37
2018-04-07T20:55:47.130Z,18.98
2018-04-07T20:58:14.663Z,20.37
2018-04-07T21:00:42.183Z,20.58
2018-04-07T21:03:09.691Z,18.85
2018-04-07T21:05:37.979Z,20.25
2018-04-07T21:08:06.255Z,22.70
2018-04-07T21:10:34.547Z,22.70
2018-04-07T21:13:02.058Z,20.35
2018-04-07T21:15:30.331Z,20.67
2018-04-07T21:17:59.347Z,21.30
2018-04-07T21:20:27.635Z,21.15
2018-04-07T21:22:55.910Z,23.10
2018-04-07T21:25:24.192Z,20.42
2018-04-07T21:27:52.478Z,20.70
2018-04-07T21:30:19.990Z,20.58
2018-04-07T21:32:47.515Z,20.48
2018-04-07T21:35:15.027Z,21.00
2018-04-07T21:37:42.543Z,19.70
2018-04-07T21:40:10.050Z,22.85
2018-04-07T21:42:38.351Z,20.98
2018-04-07T21:45:05.891Z,19.55
2018-04-07T21:47:34.166Z,22.60
2018-04-07T21:50:02.465Z,43.80
2018-04-07T21:52:29.994Z,47.20
2018-04-07T21:54:57.507Z,42.70
2018-04-07T21:57:25.033Z,47.58
2018-04-07T21:59:52.547Z,42.13
2018-04-07T22:02:20.075Z,46.20
2018-04-07T22:04:47.588Z,45.65
2018-04-07T22:07:15.107Z,44.53
2018-04-07T22:09:42.634Z,44.08
2018-04-07T22:12:10.148Z,48.60
2018-04-07T22:14:37.684Z,54.40
2018-04-07T22:17:05.194Z,49.25
2018-04-07T22:19:33.462Z,51.33
2018-04-07T22:22:01.755Z,39.22
2018-04-07T22:24:29.271Z,45.35
2018-04-07T22:26:56.798Z,43.67
2018-04-07T22:29:24.316Z,44.25
2018-04-07T22:31:52.607Z,45.70
2018-04-07T22:34:20.131Z,20.25
2018-04-07T22:36:47.639Z,21.00
2018-04-07T22:39:15.143Z,41.08
2018-04-07T22:41:42.659Z,20.17
2018-04-07T22:44:10.167Z,19.77
2018-04-07T22:46:37.787Z,48.25
2018-04-07T22:49:05.292Z,55.60
2018-04-07T22:51:32.798Z,47.22
2018-04-07T22:54:00.326Z,44.38
2018-04-07T22:56:28.599Z,45.08
2018-04-07T22:58:56.870Z,45.30
2018-04-07T23:01:25.154Z,44.13
2018-04-07T23:03:53.430Z,41.30
2018-04-07T23:06:21.712Z,44.88
2018-04-07T23:08:49.995Z,38.75
2018-04-07T23:11:17.518Z,40.88
2018-04-07T23:13:45.027Z,43.00
2018-04-07T23:16:12.531Z,49.40
2018-04-07T23:18:40.040Z,46.47
2018-04-07T23:21:07.548Z,22.80
2018-04-07T23:23:35.082Z,20.95
2018-04-07T23:26:02.615Z,21.85
2018-04-07T23:28:30.123Z,21.58
2018-04-07T23:30:57.648Z,17.12
2018-04-07T23:33:25.156Z,19.30
2018-04-07T23:35:52.664Z,18.02
2018-04-07T23:38:20.172Z,17.67
2018-04-07T23:40:47.684Z,17.17
2018-04-07T23:43:15.195Z,20.85
2018-04-07T23:45:42.696Z,20.42
2018-04-07T23:48:10.219Z,19.40
2018-04-07T23:50:38.512Z,18.95
2018-04-07T23:53:06.787Z,17.20
2018-04-07T23:55:35.067Z,19.70
2018-04-07T23:58:03.366Z,17.48
